Nathalie — OJLP — position and weather

sailwx.info

Track history (hours):
 
Tides and Currents Weather Stations Pressure Air Temp Water Temp Dewpoint Dewpoint Depression Visibility Wind Speed Wind Dir Waves Ship Positions

Nathalie

Last reported at 2017-Dec-08 20:58 UTC. Time now 2017-Dec-11 06:02 UTC.
Position N 56°25' E 016°14'.

Length 64 m; draft 3.6 m.

Type: Cargo ship. MMSI: 230987660.

Date/timePositionNaut miles runAvg speedWind from/ knotsBaromVisibWave heightAir tempDewpointWater temp
2017-Dec-08 20:58N 56°25' E 016°14'4 9.0
2017-Dec-08 20:30N 56°21' E 016°12'4 9.0
2017-Dec-08 20:01N 56°17' E 016°09'4 9.0
2017-Dec-08 19:31N 56°13' E 016°07'5 9.2
2017-Dec-08 19:01N 56°08' E 016°03'5 9.4
2017-Dec-08 18:31N 56°04' E 015°59'5 9.3
2017-Dec-08 18:01N 56°00' E 015°55'4 8.9
2017-Dec-08 17:31N 55°56' E 015°51'5 9.0
2017-Dec-08 17:00N 55°54' E 015°45'4 8.7
2017-Dec-08 16:30N 55°51' E 015°39'4 8.9
2017-Dec-08 16:01N 55°48' E 015°33'4 8.7
2017-Dec-08 15:31N 55°45' E 015°27'4 8.8
2017-Dec-08 15:00N 55°42' E 015°21'12 8.8
2017-Dec-08 13:39N 55°35' E 015°05'4 8.7
2017-Dec-08 13:15N 55°32' E 014°60'3 8.5
2017-Dec-08 12:52N 55°31' E 014°55'3 8.5
2017-Dec-08 12:28N 55°28' E 014°51'4 8.6
2017-Dec-08 11:57N 55°26' E 014°45'4 8.4
2017-Dec-08 11:30N 55°23' E 014°40'4 8.3
2017-Dec-08 11:00N 55°20' E 014°35'4 8.3
2017-Dec-08 10:30N 55°16' E 014°31'4 8.0
2017-Dec-08 10:00N 55°13' E 014°26'4 7.7
2017-Dec-08 09:29N 55°10' E 014°21'4 7.9
2017-Dec-08 09:00N 55°08' E 014°17'5 8.0
2017-Dec-08 08:21N 55°04' E 014°11'58 8.5
2017-Dec-08 01:34N 54°39' E 012°40'1 8.9
2017-Dec-08 01:29N 54°39' E 012°39'4 8.8
2017-Dec-08 01:00N 54°37' E 012°32'5 8.9
2017-Dec-08 00:24N 54°34' E 012°24'5 8.8
2017-Dec-07 23:46N 54°31' E 012°17'2 8.4
2017-Dec-07 23:30N 54°28' E 012°15'5 9.6
2017-Dec-07 22:59N 54°24' E 012°10'5 9.2
2017-Dec-07 22:28N 54°22' E 012°03'4 9.1
2017-Dec-07 22:00N 54°20' E 011°57'4 8.7
2017-Dec-07 21:30N 54°18' E 011°50'47 2.8
2017-Dec-07 04:50N 53°53' E 010°42'4 5.2
2017-Dec-07 04:08N 53°54' E 010°48'2 7.0
2017-Dec-07 03:49N 53°55' E 010°52'2 7.3
2017-Dec-07 03:30N 53°57' E 010°52'4 8.3
2017-Dec-07 03:00N 54°00' E 010°56'3 5.8
2017-Dec-07 02:30N 54°02' E 010°60'3 5.1
2017-Dec-07 01:59N 54°04' E 011°03'2 4.4
2017-Dec-07 01:27N 54°06' E 011°05'8 3.5
2017-Dec-06 23:14N 54°12' E 011°13'1 3.0
2017-Dec-06 22:53N 54°13' E 011°13'1 3.2
2017-Dec-06 22:25N 54°15' E 011°14'2 3.4
2017-Dec-06 21:45N 54°17' E 011°16'1 3.4
2017-Dec-06 21:29N 54°18' E 011°16'2 4.7
2017-Dec-06 21:00N 54°20' E 011°18'  
2017-Dec-04 10:30N 51°54' E 004°28'0 0.0
2017-Dec-04 10:00N 51°54' E 004°28'0 0.0
2017-Dec-04 09:30N 51°54' E 004°28'0 0.0
2017-Dec-04 09:00N 51°54' E 004°28'0 0.0
2017-Dec-04 08:30N 51°54' E 004°28'0 0.0
2017-Dec-04 08:00N 51°54' E 004°28'0 0.0
2017-Dec-04 07:30N 51°54' E 004°28'0 0.0
2017-Dec-04 07:00N 51°54' E 004°28'0 0.0
2017-Dec-04 06:30N 51°54' E 004°28'0 0.0
2017-Dec-04 06:00N 51°54' E 004°28'0 0.0
2017-Dec-04 05:30N 51°54' E 004°28'0 0.0
2017-Dec-04 05:00N 51°54' E 004°28'0 0.0
2017-Dec-04 04:30N 51°54' E 004°28'0 0.0
2017-Dec-04 04:00N 51°54' E 004°28'0 0.0
2017-Dec-04 03:30N 51°54' E 004°28'0 0.0
2017-Dec-04 03:00N 51°54' E 004°28'0 0.0
2017-Dec-04 02:30N 51°54' E 004°28'0 0.0
2017-Dec-04 02:00N 51°54' E 004°28'0 0.0
2017-Dec-04 01:30N 51°54' E 004°28'0 0.0
2017-Dec-04 01:00N 51°54' E 004°28'0 0.0
2017-Dec-04 00:30N 51°54' E 004°28'0 0.0
2017-Dec-04 00:00N 51°54' E 004°28'0 0.0
2017-Dec-03 23:30N 51°54' E 004°28'0 0.0
2017-Dec-03 23:00N 51°54' E 004°28'0 0.0
2017-Dec-03 22:30N 51°54' E 004°28'0 0.0
2017-Dec-03 22:00N 51°54' E 004°28'0 0.0
2017-Dec-03 21:30N 51°54' E 004°28'0 0.0
2017-Dec-03 21:00N 51°54' E 004°28'0 0.0
2017-Dec-03 20:30N 51°54' E 004°28'0 0.0
2017-Dec-03 20:00N 51°54' E 004°28'0 0.0
2017-Dec-03 19:30N 51°54' E 004°28'0 0.0
2017-Dec-03 19:00N 51°54' E 004°28'0 0.0
2017-Dec-03 18:30N 51°54' E 004°28'0 0.0
2017-Dec-03 17:59N 51°54' E 004°28'0 0.0
2017-Dec-03 17:29N 51°54' E 004°28'0 0.0
2017-Dec-03 16:59N 51°54' E 004°28'0 0.0
2017-Dec-03 16:29N 51°54' E 004°28'0 0.0
2017-Dec-03 15:59N 51°54' E 004°28'0 0.0
2017-Dec-03 15:29N 51°54' E 004°28'0 0.0
2017-Dec-03 14:59N 51°54' E 004°28'0 0.0
2017-Dec-03 14:29N 51°54' E 004°28'0 0.0
2017-Dec-03 13:59N 51°54' E 004°28'0 0.0
2017-Dec-03 13:29N 51°54' E 004°28'0 0.0
2017-Dec-03 12:59N 51°54' E 004°28'0 0.0
2017-Dec-03 12:29N 51°54' E 004°28'0 0.0
2017-Dec-03 11:59N 51°54' E 004°28'0 0.0
2017-Dec-03 11:29N 51°54' E 004°28'0 0.0
2017-Dec-03 10:59N 51°54' E 004°28'0 0.0
2017-Dec-03 10:29N 51°54' E 004°28'0 0.0
2017-Dec-03 09:59N 51°54' E 004°28'0 0.0
2017-Dec-03 09:29N 51°54' E 004°28'0 0.0
2017-Dec-03 08:59N 51°54' E 004°28'0 0.0
2017-Dec-03 08:29N 51°54' E 004°28'0 0.0
2017-Dec-03 07:59N 51°54' E 004°28'0 0.0
2017-Dec-03 07:29N 51°54' E 004°28'0 0.0
2017-Dec-03 06:59N 51°54' E 004°28'0 0.0
2017-Dec-03 06:29N 51°54' E 004°28'0 0.0
2017-Dec-03 05:59N 51°54' E 004°28'0 0.0
2017-Dec-03 05:29N 51°54' E 004°28'0 0.0
2017-Dec-03 04:59N 51°54' E 004°28'0 0.0
2017-Dec-03 04:29N 51°54' E 004°28'0 0.0
2017-Dec-03 03:59N 51°54' E 004°28'0 0.0
2017-Dec-03 03:29N 51°54' E 004°28'0 0.0
2017-Dec-03 02:59N 51°54' E 004°28'0 0.0
2017-Dec-03 02:29N 51°54' E 004°28'0 0.0
2017-Dec-03 01:59N 51°54' E 004°28'0 0.0
2017-Dec-03 01:29N 51°54' E 004°28'0 0.0
2017-Dec-03 00:59N 51°54' E 004°28'0 0.0
2017-Dec-03 00:29N 51°54' E 004°28'0 0.0
2017-Dec-02 23:59N 51°54' E 004°28'0 0.0
2017-Dec-02 23:29N 51°54' E 004°28'0 0.0
2017-Dec-02 22:59N 51°54' E 004°28'0 0.0
2017-Dec-02 22:29N 51°54' E 004°28'0 0.0
2017-Dec-02 21:59N 51°54' E 004°28'0 0.0
2017-Dec-02 21:29N 51°54' E 004°28'0 0.0
2017-Dec-02 20:59N 51°54' E 004°28'0 0.0
2017-Dec-02 20:29N 51°54' E 004°28'0 0.0
2017-Dec-02 19:59N 51°54' E 004°28'0 0.0
2017-Dec-02 19:29N 51°54' E 004°28'0 0.0
2017-Dec-02 18:59N 51°54' E 004°28'0 0.0
2017-Dec-02 18:29N 51°54' E 004°28'0 0.0
2017-Dec-02 17:59N 51°54' E 004°28'0 0.0
2017-Dec-02 17:29N 51°54' E 004°28'0 0.0
2017-Dec-02 16:59N 51°54' E 004°28'0 0.0
2017-Dec-02 16:29N 51°54' E 004°28'0 0.0
2017-Dec-02 15:59N 51°54' E 004°28'0 0.0
2017-Dec-02 15:29N 51°54' E 004°28'0 0.0
2017-Dec-02 14:59N 51°54' E 004°28'0 0.0
2017-Dec-02 14:29N 51°54' E 004°28'0 0.0
2017-Dec-02 13:59N 51°54' E 004°28'0 0.0
2017-Dec-02 13:29N 51°54' E 004°28'0 0.0
2017-Dec-02 12:59N 51°54' E 004°28'0 0.0
2017-Dec-02 12:29N 51°54' E 004°28'0 0.0
2017-Dec-02 11:59N 51°54' E 004°28'0 0.0
2017-Dec-02 11:29N 51°54' E 004°28'0 0.0
2017-Dec-02 10:59N 51°54' E 004°28'0 0.0
2017-Dec-02 10:29N 51°54' E 004°28'0 0.0
2017-Dec-02 09:59N 51°54' E 004°28'0 0.0
2017-Dec-02 09:29N 51°54' E 004°28'0 0.0
2017-Dec-02 08:59N 51°54' E 004°28'0 0.0
2017-Dec-02 08:29N 51°54' E 004°28'0 0.0
2017-Dec-02 07:58N 51°54' E 004°28'0 0.0
2017-Dec-02 07:28N 51°54' E 004°28'0 0.0
2017-Dec-02 06:58N 51°54' E 004°28'0 0.0
2017-Dec-02 06:28N 51°54' E 004°28'0 0.0
2017-Dec-02 05:58N 51°54' E 004°28'0 0.0
2017-Dec-02 05:28N 51°54' E 004°28'0 0.0
2017-Dec-02 04:58N 51°54' E 004°28'0 0.0
2017-Dec-02 04:28N 51°54' E 004°28'0 0.0
2017-Dec-02 03:58N 51°54' E 004°28'0 0.0
2017-Dec-02 03:28N 51°54' E 004°28'0 0.0
2017-Dec-02 02:58N 51°54' E 004°28'0 0.0
2017-Dec-02 02:28N 51°54' E 004°28'0 0.0
2017-Dec-02 01:58N 51°54' E 004°28'0 0.0
2017-Dec-02 01:28N 51°54' E 004°28'0 0.0
2017-Dec-02 00:58N 51°54' E 004°28'0 0.0
2017-Dec-02 00:28N 51°54' E 004°28'0 0.0
2017-Dec-01 23:58N 51°54' E 004°28'0 0.0
2017-Dec-01 23:28N 51°54' E 004°28'0 0.0
2017-Dec-01 22:58N 51°54' E 004°28'0 0.0
2017-Dec-01 22:28N 51°54' E 004°28'0 0.0
2017-Dec-01 21:58N 51°54' E 004°28'0 0.0
2017-Dec-01 21:28N 51°54' E 004°28'0 0.0
2017-Dec-01 20:58N 51°54' E 004°28'0 0.0
2017-Dec-01 20:28N 51°54' E 004°28'0 0.0
2017-Dec-01 19:58N 51°54' E 004°28'0 0.0
2017-Dec-01 19:28N 51°54' E 004°28'0 0.0
2017-Dec-01 18:58N 51°54' E 004°28'0 0.0
2017-Dec-01 18:28N 51°54' E 004°28'0 0.0
2017-Dec-01 17:58N 51°54' E 004°28'0 0.0
2017-Dec-01 17:28N 51°54' E 004°28'0 0.0
2017-Dec-01 16:58N 51°54' E 004°28'0 0.0
2017-Dec-01 16:28N 51°54' E 004°28'0 0.0
2017-Dec-01 15:58N 51°54' E 004°28'0 0.0
2017-Dec-01 15:28N 51°54' E 004°28'0 0.0
2017-Dec-01 14:58N 51°54' E 004°28'0 0.0
2017-Dec-01 14:28N 51°54' E 004°28'0 0.0
2017-Dec-01 13:58N 51°54' E 004°28'0 0.1
2017-Dec-01 13:30N 51°54' E 004°28'0 0.1
2017-Dec-01 12:59N 51°54' E 004°28'0 0.0
2017-Dec-01 12:29N 51°54' E 004°28'0 0.0
2017-Dec-01 11:59N 51°54' E 004°28'0 0.0
2017-Dec-01 11:29N 51°54' E 004°28'0 0.0
2017-Dec-01 10:59N 51°54' E 004°28'0 0.0
2017-Dec-01 10:29N 51°54' E 004°28'0 0.0
2017-Dec-01 09:59N 51°54' E 004°28'0 0.0
2017-Dec-01 09:29N 51°54' E 004°28'0 0.0
2017-Dec-01 08:59N 51°54' E 004°28'0 0.0
2017-Dec-01 08:29N 51°54' E 004°28'0 0.0
2017-Dec-01 07:59N 51°54' E 004°28'0 0.2
2017-Dec-01 07:30N 51°54' E 004°28'1 1.9
2017-Dec-01 07:00N 51°54' E 004°27'0 0.4
2017-Dec-01 06:30N 51°53' E 004°27'0 0.0
2017-Dec-01 06:00N 51°53' E 004°27'0 0.0
2017-Dec-01 05:30N 51°53' E 004°27'0 0.0
2017-Dec-01 05:00N 51°53' E 004°27'0 0.0
2017-Dec-01 04:30N 51°53' E 004°27'0 0.0
2017-Dec-01 04:00N 51°53' E 004°27'0 0.0
2017-Dec-01 03:30N 51°53' E 004°27'0 0.0
2017-Dec-01 03:00N 51°53' E 004°27'0 0.0
2017-Dec-01 02:30N 51°53' E 004°27'0 0.0
2017-Dec-01 02:00N 51°53' E 004°27'0 0.0
2017-Dec-01 01:30N 51°53' E 004°27'0 0.0
2017-Dec-01 01:00N 51°53' E 004°27'0 0.0
2017-Dec-01 00:30N 51°53' E 004°27'0 0.0
2017-Dec-01 00:00N 51°53' E 004°27'0 0.0
2017-Nov-30 23:27N 51°53' E 004°27'0 0.0
2017-Nov-30 23:00N 51°53' E 004°27'0 0.0
2017-Nov-30 22:27N 51°53' E 004°27'0 0.0
2017-Nov-30 22:00N 51°53' E 004°27'0 0.0
2017-Nov-30 21:30N 51°53' E 004°27'0 0.0
2017-Nov-30 21:00N 51°53' E 004°27'0 0.0
2017-Nov-30 20:30N 51°53' E 004°27'0 0.0
2017-Nov-30 20:00N 51°53' E 004°27'0 0.0
2017-Nov-30 19:30N 51°53' E 004°27'0 0.0
2017-Nov-30 19:00N 51°53' E 004°27'0 0.0
2017-Nov-30 18:30N 51°53' E 004°27'0 0.0
2017-Nov-30 18:00N 51°53' E 004°27'0 0.0
2017-Nov-30 17:29N 51°53' E 004°27'0 0.0
2017-Nov-30 16:59N 51°53' E 004°27'0 0.0
2017-Nov-30 16:29N 51°53' E 004°27'0 0.0
2017-Nov-30 15:59N 51°53' E 004°27'0 0.0
2017-Nov-30 15:29N 51°53' E 004°27'0 0.0
2017-Nov-30 14:56N 51°53' E 004°27'0 0.0
2017-Nov-30 14:29N 51°53' E 004°27'0 0.0
2017-Nov-30 13:56N 51°53' E 004°27'0 0.0
2017-Nov-30 13:29N 51°53' E 004°27'0 0.0
2017-Nov-30 12:59N 51°53' E 004°27'0 0.0
2017-Nov-30 12:29N 51°53' E 004°27'0 0.0
2017-Nov-30 11:59N 51°53' E 004°27'0 0.0
2017-Nov-30 11:29N 51°53' E 004°27'0 0.0
2017-Nov-30 10:59N 51°53' E 004°27'0 0.0
2017-Nov-30 10:29N 51°53' E 004°27'0 0.0
2017-Nov-30 09:59N 51°53' E 004°27'0 0.0
2017-Nov-30 09:29N 51°53' E 004°27'0 0.0
2017-Nov-30 08:59N 51°53' E 004°27'0 0.0
2017-Nov-30 08:29N 51°53' E 004°27'0 0.0
2017-Nov-30 07:59N 51°53' E 004°27'0 0.0
2017-Nov-30 07:29N 51°53' E 004°27'0 0.0
2017-Nov-30 06:59N 51°53' E 004°27'0 0.0
2017-Nov-30 06:29N 51°53' E 004°27'0 0.0
2017-Nov-30 05:59N 51°53' E 004°27'0 0.0
2017-Nov-30 05:29N 51°53' E 004°27'0 0.0
2017-Nov-30 04:59N 51°53' E 004°27'0 0.0
2017-Nov-30 04:29N 51°53' E 004°27'0 0.0
2017-Nov-30 03:59N 51°53' E 004°27'0 0.0
2017-Nov-30 03:29N 51°53' E 004°27'0 0.0
2017-Nov-30 02:59N 51°53' E 004°27'0 0.0
2017-Nov-30 02:29N 51°53' E 004°27'0 0.0
2017-Nov-30 01:59N 51°53' E 004°27'0 0.0
2017-Nov-30 01:29N 51°53' E 004°27'0 0.0
2017-Nov-30 00:59N 51°53' E 004°27'0 0.0
2017-Nov-30 00:29N 51°53' E 004°27'0 0.0
2017-Nov-29 23:59N 51°53' E 004°27'0 0.0
2017-Nov-29 23:29N 51°53' E 004°27'0 0.0
2017-Nov-29 22:59N 51°53' E 004°27'0 0.0
2017-Nov-29 22:29N 51°53' E 004°27'0 0.0
2017-Nov-29 21:59N 51°53' E 004°27'0 0.0
2017-Nov-29 21:29N 51°53' E 004°27'0 0.0
2017-Nov-29 20:59N 51°53' E 004°27'0 0.0
2017-Nov-29 20:29N 51°53' E 004°27'0 0.0
2017-Nov-29 19:53N 51°53' E 004°27'0 0.0
2017-Nov-29 19:29N 51°53' E 004°27'0 0.0
2017-Nov-29 18:59N 51°53' E 004°27'0 0.0
2017-Nov-29 18:29N 51°53' E 004°27'0 0.5
2017-Nov-29 18:00N 51°54' E 004°27'3 6.0
2017-Nov-29 17:30N 51°54' E 004°22'4 7.7
2017-Nov-29 17:00N 51°54' E 004°16'3 6.9
2017-Nov-29 16:30N 51°57' E 004°11'3 6.7
2017-Nov-29 16:00N 51°59' E 004°07'3 6.1
2017-Nov-29 15:30N 51°60' E 004°02'3 6.6
2017-Nov-29 15:00N 52°00' E 003°57'115 7.7
2017-Nov-29 00:05N 53°40' E 005°33'3 8.3
2017-Nov-28 23:45N 53°41' E 005°38'  
Track history (hours):
 
Tides and Currents Weather Stations Pressure Air Temp Water Temp Dewpoint Dewpoint Depression Visibility Wind Speed Wind Dir Waves Ship Positions

Nathalie

Last reported at 2017-Dec-08 20:58 UTC. Time now 2017-Dec-11 06:02 UTC.
Position N 56°25' E 016°14'.

Length 64 m; draft 3.6 m.

Type: Cargo ship. MMSI: 230987660.

Date/timePositionNaut miles runAvg speedWind from/ knotsBaromVisibWave heightAir tempDewpointWater temp
2017-Dec-08 20:58N 56°25' E 016°14'4 9.0
2017-Dec-08 20:30N 56°21' E 016°12'4 9.0
2017-Dec-08 20:01N 56°17' E 016°09'4 9.0
2017-Dec-08 19:31N 56°13' E 016°07'5 9.2
2017-Dec-08 19:01N 56°08' E 016°03'5 9.4
2017-Dec-08 18:31N 56°04' E 015°59'5 9.3
2017-Dec-08 18:01N 56°00' E 015°55'4 8.9
2017-Dec-08 17:31N 55°56' E 015°51'5 9.0
2017-Dec-08 17:00N 55°54' E 015°45'4 8.7
2017-Dec-08 16:30N 55°51' E 015°39'4 8.9
2017-Dec-08 16:01N 55°48' E 015°33'4 8.7
2017-Dec-08 15:31N 55°45' E 015°27'4 8.8
2017-Dec-08 15:00N 55°42' E 015°21'12 8.8
2017-Dec-08 13:39N 55°35' E 015°05'4 8.7
2017-Dec-08 13:15N 55°32' E 014°60'3 8.5
2017-Dec-08 12:52N 55°31' E 014°55'3 8.5
2017-Dec-08 12:28N 55°28' E 014°51'4 8.6
2017-Dec-08 11:57N 55°26' E 014°45'4 8.4
2017-Dec-08 11:30N 55°23' E 014°40'4 8.3
2017-Dec-08 11:00N 55°20' E 014°35'4 8.3
2017-Dec-08 10:30N 55°16' E 014°31'4 8.0
2017-Dec-08 10:00N 55°13' E 014°26'4 7.7
2017-Dec-08 09:29N 55°10' E 014°21'4 7.9
2017-Dec-08 09:00N 55°08' E 014°17'5 8.0
2017-Dec-08 08:21N 55°04' E 014°11'58 8.5
2017-Dec-08 01:34N 54°39' E 012°40'1 8.9
2017-Dec-08 01:29N 54°39' E 012°39'4 8.8
2017-Dec-08 01:00N 54°37' E 012°32'5 8.9
2017-Dec-08 00:24N 54°34' E 012°24'5 8.8
2017-Dec-07 23:46N 54°31' E 012°17'2 8.4
2017-Dec-07 23:30N 54°28' E 012°15'5 9.6
2017-Dec-07 22:59N 54°24' E 012°10'5 9.2
2017-Dec-07 22:28N 54°22' E 012°03'4 9.1
2017-Dec-07 22:00N 54°20' E 011°57'4 8.7
2017-Dec-07 21:30N 54°18' E 011°50'47 2.8
2017-Dec-07 04:50N 53°53' E 010°42'4 5.2
2017-Dec-07 04:08N 53°54' E 010°48'2 7.0
2017-Dec-07 03:49N 53°55' E 010°52'2 7.3
2017-Dec-07 03:30N 53°57' E 010°52'4 8.3
2017-Dec-07 03:00N 54°00' E 010°56'3 5.8
2017-Dec-07 02:30N 54°02' E 010°60'3 5.1
2017-Dec-07 01:59N 54°04' E 011°03'2 4.4
2017-Dec-07 01:27N 54°06' E 011°05'8 3.5
2017-Dec-06 23:14N 54°12' E 011°13'1 3.0
2017-Dec-06 22:53N 54°13' E 011°13'1 3.2
2017-Dec-06 22:25N 54°15' E 011°14'2 3.4
2017-Dec-06 21:45N 54°17' E 011°16'1 3.4
2017-Dec-06 21:29N 54°18' E 011°16'2 4.7
2017-Dec-06 21:00N 54°20' E 011°18'  
2017-Dec-04 10:30N 51°54' E 004°28'0 0.0
2017-Dec-04 10:00N 51°54' E 004°28'0 0.0
2017-Dec-04 09:30N 51°54' E 004°28'0 0.0
2017-Dec-04 09:00N 51°54' E 004°28'0 0.0
2017-Dec-04 08:30N 51°54' E 004°28'0 0.0
2017-Dec-04 08:00N 51°54' E 004°28'0 0.0
2017-Dec-04 07:30N 51°54' E 004°28'0 0.0
2017-Dec-04 07:00N 51°54' E 004°28'0 0.0
2017-Dec-04 06:30N 51°54' E 004°28'0 0.0
2017-Dec-04 06:00N 51°54' E 004°28'0 0.0
2017-Dec-04 05:30N 51°54' E 004°28'0 0.0
2017-Dec-04 05:00N 51°54' E 004°28'0 0.0
2017-Dec-04 04:30N 51°54' E 004°28'0 0.0
2017-Dec-04 04:00N 51°54' E 004°28'0 0.0
2017-Dec-04 03:30N 51°54' E 004°28'0 0.0
2017-Dec-04 03:00N 51°54' E 004°28'0 0.0
2017-Dec-04 02:30N 51°54' E 004°28'0 0.0
2017-Dec-04 02:00N 51°54' E 004°28'0 0.0
2017-Dec-04 01:30N 51°54' E 004°28'0 0.0
2017-Dec-04 01:00N 51°54' E 004°28'0 0.0
2017-Dec-04 00:30N 51°54' E 004°28'0 0.0
2017-Dec-04 00:00N 51°54' E 004°28'0 0.0
2017-Dec-03 23:30N 51°54' E 004°28'0 0.0
2017-Dec-03 23:00N 51°54' E 004°28'0 0.0
2017-Dec-03 22:30N 51°54' E 004°28'0 0.0
2017-Dec-03 22:00N 51°54' E 004°28'0 0.0
2017-Dec-03 21:30N 51°54' E 004°28'0 0.0
2017-Dec-03 21:00N 51°54' E 004°28'0 0.0
2017-Dec-03 20:30N 51°54' E 004°28'0 0.0
2017-Dec-03 20:00N 51°54' E 004°28'0 0.0
2017-Dec-03 19:30N 51°54' E 004°28'0 0.0
2017-Dec-03 19:00N 51°54' E 004°28'0 0.0
2017-Dec-03 18:30N 51°54' E 004°28'0 0.0
2017-Dec-03 17:59N 51°54' E 004°28'0 0.0
2017-Dec-03 17:29N 51°54' E 004°28'0 0.0
2017-Dec-03 16:59N 51°54' E 004°28'0 0.0
2017-Dec-03 16:29N 51°54' E 004°28'0 0.0
2017-Dec-03 15:59N 51°54' E 004°28'0 0.0
2017-Dec-03 15:29N 51°54' E 004°28'0 0.0
2017-Dec-03 14:59N 51°54' E 004°28'0 0.0
2017-Dec-03 14:29N 51°54' E 004°28'0 0.0
2017-Dec-03 13:59N 51°54' E 004°28'0 0.0
2017-Dec-03 13:29N 51°54' E 004°28'0 0.0
2017-Dec-03 12:59N 51°54' E 004°28'0 0.0
2017-Dec-03 12:29N 51°54' E 004°28'0 0.0
2017-Dec-03 11:59N 51°54' E 004°28'0 0.0
2017-Dec-03 11:29N 51°54' E 004°28'0 0.0
2017-Dec-03 10:59N 51°54' E 004°28'0 0.0
2017-Dec-03 10:29N 51°54' E 004°28'0 0.0
2017-Dec-03 09:59N 51°54' E 004°28'0 0.0
2017-Dec-03 09:29N 51°54' E 004°28'0 0.0
2017-Dec-03 08:59N 51°54' E 004°28'0 0.0
2017-Dec-03 08:29N 51°54' E 004°28'0 0.0
2017-Dec-03 07:59N 51°54' E 004°28'0 0.0
2017-Dec-03 07:29N 51°54' E 004°28'0 0.0
2017-Dec-03 06:59N 51°54' E 004°28'0 0.0
2017-Dec-03 06:29N 51°54' E 004°28'0 0.0
2017-Dec-03 05:59N 51°54' E 004°28'0 0.0
2017-Dec-03 05:29N 51°54' E 004°28'0 0.0
2017-Dec-03 04:59N 51°54' E 004°28'0 0.0
2017-Dec-03 04:29N 51°54' E 004°28'0 0.0
2017-Dec-03 03:59N 51°54' E 004°28'0 0.0
2017-Dec-03 03:29N 51°54' E 004°28'0 0.0
2017-Dec-03 02:59N 51°54' E 004°28'0 0.0
2017-Dec-03 02:29N 51°54' E 004°28'0 0.0
2017-Dec-03 01:59N 51°54' E 004°28'0 0.0
2017-Dec-03 01:29N 51°54' E 004°28'0 0.0
2017-Dec-03 00:59N 51°54' E 004°28'0 0.0
2017-Dec-03 00:29N 51°54' E 004°28'0 0.0
2017-Dec-02 23:59N 51°54' E 004°28'0 0.0
2017-Dec-02 23:29N 51°54' E 004°28'0 0.0
2017-Dec-02 22:59N 51°54' E 004°28'0 0.0
2017-Dec-02 22:29N 51°54' E 004°28'0 0.0
2017-Dec-02 21:59N 51°54' E 004°28'0 0.0
2017-Dec-02 21:29N 51°54' E 004°28'0 0.0
2017-Dec-02 20:59N 51°54' E 004°28'0 0.0
2017-Dec-02 20:29N 51°54' E 004°28'0 0.0
2017-Dec-02 19:59N 51°54' E 004°28'0 0.0
2017-Dec-02 19:29N 51°54' E 004°28'0 0.0
2017-Dec-02 18:59N 51°54' E 004°28'0 0.0
2017-Dec-02 18:29N 51°54' E 004°28'0 0.0
2017-Dec-02 17:59N 51°54' E 004°28'0 0.0
2017-Dec-02 17:29N 51°54' E 004°28'0 0.0
2017-Dec-02 16:59N 51°54' E 004°28'0 0.0
2017-Dec-02 16:29N 51°54' E 004°28'0 0.0
2017-Dec-02 15:59N 51°54' E 004°28'0 0.0
2017-Dec-02 15:29N 51°54' E 004°28'0 0.0
2017-Dec-02 14:59N 51°54' E 004°28'0 0.0
2017-Dec-02 14:29N 51°54' E 004°28'0 0.0
2017-Dec-02 13:59N 51°54' E 004°28'0 0.0
2017-Dec-02 13:29N 51°54' E 004°28'0 0.0
2017-Dec-02 12:59N 51°54' E 004°28'0 0.0
2017-Dec-02 12:29N 51°54' E 004°28'0 0.0
2017-Dec-02 11:59N 51°54' E 004°28'0 0.0
2017-Dec-02 11:29N 51°54' E 004°28'0 0.0
2017-Dec-02 10:59N 51°54' E 004°28'0 0.0
2017-Dec-02 10:29N 51°54' E 004°28'0 0.0
2017-Dec-02 09:59N 51°54' E 004°28'0 0.0
2017-Dec-02 09:29N 51°54' E 004°28'0 0.0
2017-Dec-02 08:59N 51°54' E 004°28'0 0.0
2017-Dec-02 08:29N 51°54' E 004°28'0 0.0
2017-Dec-02 07:58N 51°54' E 004°28'0 0.0
2017-Dec-02 07:28N 51°54' E 004°28'0 0.0
2017-Dec-02 06:58N 51°54' E 004°28'0 0.0
2017-Dec-02 06:28N 51°54' E 004°28'0 0.0
2017-Dec-02 05:58N 51°54' E 004°28'0 0.0
2017-Dec-02 05:28N 51°54' E 004°28'0 0.0
2017-Dec-02 04:58N 51°54' E 004°28'0 0.0
2017-Dec-02 04:28N 51°54' E 004°28'0 0.0
2017-Dec-02 03:58N 51°54' E 004°28'0 0.0
2017-Dec-02 03:28N 51°54' E 004°28'0 0.0
2017-Dec-02 02:58N 51°54' E 004°28'0 0.0
2017-Dec-02 02:28N 51°54' E 004°28'0 0.0
2017-Dec-02 01:58N 51°54' E 004°28'0 0.0
2017-Dec-02 01:28N 51°54' E 004°28'0 0.0
2017-Dec-02 00:58N 51°54' E 004°28'0 0.0
2017-Dec-02 00:28N 51°54' E 004°28'0 0.0
2017-Dec-01 23:58N 51°54' E 004°28'0 0.0
2017-Dec-01 23:28N 51°54' E 004°28'0 0.0
2017-Dec-01 22:58N 51°54' E 004°28'0 0.0
2017-Dec-01 22:28N 51°54' E 004°28'0 0.0
2017-Dec-01 21:58N 51°54' E 004°28'0 0.0
2017-Dec-01 21:28N 51°54' E 004°28'0 0.0
2017-Dec-01 20:58N 51°54' E 004°28'0 0.0
2017-Dec-01 20:28N 51°54' E 004°28'0 0.0
2017-Dec-01 19:58N 51°54' E 004°28'0 0.0
2017-Dec-01 19:28N 51°54' E 004°28'0 0.0
2017-Dec-01 18:58N 51°54' E 004°28'0 0.0
2017-Dec-01 18:28N 51°54' E 004°28'0 0.0
2017-Dec-01 17:58N 51°54' E 004°28'0 0.0
2017-Dec-01 17:28N 51°54' E 004°28'0 0.0
2017-Dec-01 16:58N 51°54' E 004°28'0 0.0
2017-Dec-01 16:28N 51°54' E 004°28'0 0.0
2017-Dec-01 15:58N 51°54' E 004°28'0 0.0
2017-Dec-01 15:28N 51°54' E 004°28'0 0.0
2017-Dec-01 14:58N 51°54' E 004°28'0 0.0
2017-Dec-01 14:28N 51°54' E 004°28'0 0.0
2017-Dec-01 13:58N 51°54' E 004°28'0 0.1
2017-Dec-01 13:30N 51°54' E 004°28'0 0.1
2017-Dec-01 12:59N 51°54' E 004°28'0 0.0
2017-Dec-01 12:29N 51°54' E 004°28'0 0.0
2017-Dec-01 11:59N 51°54' E 004°28'0 0.0
2017-Dec-01 11:29N 51°54' E 004°28'0 0.0
2017-Dec-01 10:59N 51°54' E 004°28'0 0.0
2017-Dec-01 10:29N 51°54' E 004°28'0 0.0
2017-Dec-01 09:59N 51°54' E 004°28'0 0.0
2017-Dec-01 09:29N 51°54' E 004°28'0 0.0
2017-Dec-01 08:59N 51°54' E 004°28'0 0.0
2017-Dec-01 08:29N 51°54' E 004°28'0 0.0
2017-Dec-01 07:59N 51°54' E 004°28'0 0.2
2017-Dec-01 07:30N 51°54' E 004°28'1 1.9
2017-Dec-01 07:00N 51°54' E 004°27'0 0.4
2017-Dec-01 06:30N 51°53' E 004°27'0 0.0
2017-Dec-01 06:00N 51°53' E 004°27'0 0.0
2017-Dec-01 05:30N 51°53' E 004°27'0 0.0
2017-Dec-01 05:00N 51°53' E 004°27'0 0.0
2017-Dec-01 04:30N 51°53' E 004°27'0 0.0
2017-Dec-01 04:00N 51°53' E 004°27'0 0.0
2017-Dec-01 03:30N 51°53' E 004°27'0 0.0
2017-Dec-01 03:00N 51°53' E 004°27'0 0.0
2017-Dec-01 02:30N 51°53' E 004°27'0 0.0
2017-Dec-01 02:00N 51°53' E 004°27'0 0.0
2017-Dec-01 01:30N 51°53' E 004°27'0 0.0
2017-Dec-01 01:00N 51°53' E 004°27'0 0.0
2017-Dec-01 00:30N 51°53' E 004°27'0 0.0
2017-Dec-01 00:00N 51°53' E 004°27'0 0.0
2017-Nov-30 23:27N 51°53' E 004°27'0 0.0
2017-Nov-30 23:00N 51°53' E 004°27'0 0.0
2017-Nov-30 22:27N 51°53' E 004°27'0 0.0
2017-Nov-30 22:00N 51°53' E 004°27'0 0.0
2017-Nov-30 21:30N 51°53' E 004°27'0 0.0
2017-Nov-30 21:00N 51°53' E 004°27'0 0.0
2017-Nov-30 20:30N 51°53' E 004°27'0 0.0
2017-Nov-30 20:00N 51°53' E 004°27'0 0.0
2017-Nov-30 19:30N 51°53' E 004°27'0 0.0
2017-Nov-30 19:00N 51°53' E 004°27'0 0.0
2017-Nov-30 18:30N 51°53' E 004°27'0 0.0
2017-Nov-30 18:00N 51°53' E 004°27'0 0.0
2017-Nov-30 17:29N 51°53' E 004°27'0 0.0
2017-Nov-30 16:59N 51°53' E 004°27'0 0.0
2017-Nov-30 16:29N 51°53' E 004°27'0 0.0
2017-Nov-30 15:59N 51°53' E 004°27'0 0.0
2017-Nov-30 15:29N 51°53' E 004°27'0 0.0
2017-Nov-30 14:56N 51°53' E 004°27'0 0.0
2017-Nov-30 14:29N 51°53' E 004°27'0 0.0
2017-Nov-30 13:56N 51°53' E 004°27'0 0.0
2017-Nov-30 13:29N 51°53' E 004°27'0 0.0
2017-Nov-30 12:59N 51°53' E 004°27'0 0.0
2017-Nov-30 12:29N 51°53' E 004°27'0 0.0
2017-Nov-30 11:59N 51°53' E 004°27'0 0.0
2017-Nov-30 11:29N 51°53' E 004°27'0 0.0
2017-Nov-30 10:59N 51°53' E 004°27'0 0.0
2017-Nov-30 10:29N 51°53' E 004°27'0 0.0
2017-Nov-30 09:59N 51°53' E 004°27'0 0.0
2017-Nov-30 09:29N 51°53' E 004°27'0 0.0
2017-Nov-30 08:59N 51°53' E 004°27'0 0.0
2017-Nov-30 08:29N 51°53' E 004°27'0 0.0
2017-Nov-30 07:59N 51°53' E 004°27'0 0.0
2017-Nov-30 07:29N 51°53' E 004°27'0 0.0
2017-Nov-30 06:59N 51°53' E 004°27'0 0.0
2017-Nov-30 06:29N 51°53' E 004°27'0 0.0
2017-Nov-30 05:59N 51°53' E 004°27'0 0.0
2017-Nov-30 05:29N 51°53' E 004°27'0 0.0
2017-Nov-30 04:59N 51°53' E 004°27'0 0.0
2017-Nov-30 04:29N 51°53' E 004°27'0 0.0
2017-Nov-30 03:59N 51°53' E 004°27'0 0.0
2017-Nov-30 03:29N 51°53' E 004°27'0 0.0
2017-Nov-30 02:59N 51°53' E 004°27'0 0.0
2017-Nov-30 02:29N 51°53' E 004°27'0 0.0
2017-Nov-30 01:59N 51°53' E 004°27'0 0.0
2017-Nov-30 01:29N 51°53' E 004°27'0 0.0
2017-Nov-30 00:59N 51°53' E 004°27'0 0.0
2017-Nov-30 00:29N 51°53' E 004°27'0 0.0
2017-Nov-29 23:59N 51°53' E 004°27'0 0.0
2017-Nov-29 23:29N 51°53' E 004°27'0 0.0
2017-Nov-29 22:59N 51°53' E 004°27'0 0.0
2017-Nov-29 22:29N 51°53' E 004°27'0 0.0
2017-Nov-29 21:59N 51°53' E 004°27'0 0.0
2017-Nov-29 21:29N 51°53' E 004°27'0 0.0
2017-Nov-29 20:59N 51°53' E 004°27'0 0.0
2017-Nov-29 20:29N 51°53' E 004°27'0 0.0
2017-Nov-29 19:53N 51°53' E 004°27'0 0.0
2017-Nov-29 19:29N 51°53' E 004°27'0 0.0
2017-Nov-29 18:59N 51°53' E 004°27'0 0.0
2017-Nov-29 18:29N 51°53' E 004°27'0 0.5
2017-Nov-29 18:00N 51°54' E 004°27'3 6.0
2017-Nov-29 17:30N 51°54' E 004°22'4 7.7
2017-Nov-29 17:00N 51°54' E 004°16'3 6.9
2017-Nov-29 16:30N 51°57' E 004°11'3 6.7
2017-Nov-29 16:00N 51°59' E 004°07'3 6.1
2017-Nov-29 15:30N 51°60' E 004°02'3 6.6
2017-Nov-29 15:00N 52°00' E 003°57'115 7.7
2017-Nov-29 00:05N 53°40' E 005°33'3 8.3
2017-Nov-28 23:45N 53°41' E 005°38'  

Dump ship's entire track history